createdAt,value
2018-03-26T00:02:21.727Z,2.10
2018-03-26T00:04:49.180Z,2.10
2018-03-26T00:07:16.639Z,2.10
2018-03-26T00:09:44.096Z,2.50
2018-03-26T00:12:11.558Z,4.00
2018-03-26T00:14:39.013Z,4.80
2018-03-26T00:17:06.472Z,5.30
2018-03-26T00:19:33.927Z,5.20
2018-03-26T00:22:01.404Z,5.40
2018-03-26T00:24:28.844Z,4.70
2018-03-26T00:26:56.303Z,4.50
2018-03-26T00:29:23.756Z,3.60
2018-03-26T00:31:51.216Z,4.00
2018-03-26T00:34:18.696Z,3.70
2018-03-26T00:36:46.960Z,3.00
2018-03-26T00:39:14.387Z,3.00
2018-03-26T00:41:41.844Z,3.50
2018-03-26T00:44:09.301Z,3.60
2018-03-26T00:46:37.520Z,5.10
2018-03-26T00:49:04.952Z,5.10
2018-03-26T00:51:32.445Z,5.00
2018-03-26T00:53:59.884Z,5.30
2018-03-26T00:56:27.343Z,4.40
2018-03-26T00:58:54.796Z,4.50
2018-03-26T01:01:22.252Z,4.50
2018-03-26T01:03:49.699Z,4.80
2018-03-26T01:06:17.169Z,4.50
2018-03-26T01:08:44.608Z,4.20
2018-03-26T01:11:12.069Z,4.10
2018-03-26T01:13:39.556Z,4.60
2018-03-26T01:16:06.996Z,4.30
2018-03-26T01:18:34.470Z,3.70
2018-03-26T01:21:01.925Z,3.70
2018-03-26T01:23:29.364Z,4.00
2018-03-26T01:25:56.812Z,5.00
2018-03-26T01:28:24.283Z,5.10
2018-03-26T01:30:51.731Z,5.00
2018-03-26T01:33:19.195Z,5.10
2018-03-26T01:35:46.640Z,5.30
2018-03-26T01:38:14.091Z,4.70
2018-03-26T01:40:41.544Z,4.10
2018-03-26T01:43:08.995Z,4.50
2018-03-26T01:45:36.490Z,4.60
2018-03-26T01:48:03.928Z,4.40
2018-03-26T01:50:31.397Z,3.70
2018-03-26T01:52:58.855Z,3.60
2018-03-26T01:55:26.314Z,4.00
2018-03-26T01:57:54.599Z,5.20
2018-03-26T02:00:22.045Z,5.20
2018-03-26T02:02:49.500Z,4.40
2018-03-26T02:05:16.948Z,3.60
2018-03-26T02:07:44.428Z,3.30
2018-03-26T02:10:11.872Z,3.20
2018-03-26T02:12:39.355Z,3.70
2018-03-26T02:15:07.580Z,5.00
2018-03-26T02:17:35.052Z,5.00
2018-03-26T02:20:02.494Z,4.20
2018-03-26T02:22:29.990Z,4.50
2018-03-26T02:24:57.419Z,4.30
2018-03-26T02:27:24.884Z,4.20
2018-03-26T02:29:52.328Z,4.40
2018-03-26T02:32:19.800Z,4.70
2018-03-26T02:34:47.244Z,4.50
2018-03-26T02:37:14.715Z,4.60
2018-03-26T02:39:42.148Z,4.40
2018-03-26T02:42:09.632Z,5.20
2018-03-26T02:44:37.102Z,5.50
2018-03-26T02:47:04.561Z,5.30
2018-03-26T02:49:32.004Z,5.10
2018-03-26T02:51:59.475Z,5.20
2018-03-26T02:54:26.920Z,5.50
2018-03-26T02:56:54.372Z,5.60
2018-03-26T02:59:21.832Z,5.60
2018-03-26T03:01:49.300Z,5.50
2018-03-26T03:04:16.742Z,4.90
2018-03-26T03:06:44.275Z,4.30
2018-03-26T03:09:11.752Z,4.60
2018-03-26T03:11:39.214Z,4.90
2018-03-26T03:14:06.700Z,5.00
2018-03-26T03:16:34.149Z,4.40
2018-03-26T03:19:01.604Z,4.70
2018-03-26T03:21:29.060Z,4.80
2018-03-26T03:23:56.499Z,5.30
2018-03-26T03:26:23.957Z,5.60
2018-03-26T03:28:51.416Z,5.70
2018-03-26T03:31:18.857Z,4.70
2018-03-26T03:33:46.315Z,4.80
2018-03-26T03:36:13.759Z,5.30
2018-03-26T03:38:41.220Z,5.20
2018-03-26T03:41:08.672Z,5.20
2018-03-26T03:43:36.131Z,4.70
2018-03-26T03:46:03.595Z,4.70
2018-03-26T03:48:31.048Z,5.40
2018-03-26T03:50:58.518Z,5.90
2018-03-26T03:53:25.948Z,5.40
2018-03-26T03:55:53.404Z,4.90
2018-03-26T03:58:20.865Z,4.00
2018-03-26T04:00:48.320Z,3.40
2018-03-26T04:03:15.795Z,3.30
2018-03-26T04:05:43.235Z,3.20
2018-03-26T04:08:10.694Z,3.40
2018-03-26T04:10:38.152Z,3.60
2018-03-26T04:13:05.643Z,3.40
2018-03-26T04:15:33.086Z,3.20
2018-03-26T04:18:00.544Z,3.20
2018-03-26T04:20:28.016Z,3.10
2018-03-26T04:22:55.478Z,3.70
2018-03-26T04:25:22.919Z,3.60
2018-03-26T04:27:50.421Z,3.80
2018-03-26T04:30:17.871Z,3.40
2018-03-26T04:32:45.325Z,3.40
2018-03-26T04:35:12.771Z,3.30
2018-03-26T04:37:40.215Z,4.00
2018-03-26T04:40:07.664Z,4.30
2018-03-26T04:42:35.115Z,3.90
2018-03-26T04:45:02.580Z,3.80
2018-03-26T04:47:30.028Z,4.50
2018-03-26T04:49:57.475Z,5.10
2018-03-26T04:52:24.947Z,5.00
2018-03-26T04:54:52.391Z,5.10
2018-03-26T04:57:20.615Z,5.00
2018-03-26T04:59:48.074Z,5.00
2018-03-26T05:02:15.559Z,3.90
2018-03-26T05:04:42.960Z,3.70
2018-03-26T05:07:10.419Z,4.10
2018-03-26T05:09:37.868Z,4.80
2018-03-26T05:12:05.323Z,4.80
2018-03-26T05:14:32.774Z,4.70
2018-03-26T05:17:00.232Z,4.70
2018-03-26T05:19:27.683Z,5.10
2018-03-26T05:21:55.140Z,4.40
2018-03-26T05:24:22.605Z,4.10
2018-03-26T05:26:50.040Z,4.40
2018-03-26T05:29:17.507Z,5.00
2018-03-26T05:31:45.707Z,5.10
2018-03-26T05:34:13.164Z,5.00
2018-03-26T05:36:40.624Z,5.30
2018-03-26T05:39:08.083Z,5.30
2018-03-26T05:41:35.524Z,5.10
2018-03-26T05:44:02.980Z,5.30
2018-03-26T05:46:30.428Z,5.40
2018-03-26T05:48:57.888Z,6.00
2018-03-26T05:51:26.102Z,6.10
2018-03-26T05:53:53.539Z,6.10
2018-03-26T05:56:21.008Z,6.20
2018-03-26T05:58:48.468Z,5.90
2018-03-26T06:01:15.900Z,5.90
2018-03-26T06:03:43.359Z,6.00
2018-03-26T06:06:10.807Z,6.10
2018-03-26T06:08:38.264Z,5.90
2018-03-26T06:11:05.727Z,4.70
2018-03-26T06:13:33.186Z,4.90
2018-03-26T06:16:00.632Z,5.20
2018-03-26T06:18:28.095Z,5.30
2018-03-26T06:20:55.532Z,5.20
2018-03-26T06:23:22.992Z,5.40
2018-03-26T06:25:50.447Z,5.30
2018-03-26T06:28:17.920Z,5.40
2018-03-26T06:30:45.369Z,5.50
2018-03-26T06:33:12.821Z,5.70
2018-03-26T06:35:40.260Z,6.30
2018-03-26T06:38:10.175Z,6.20
2018-03-26T06:40:37.620Z,6.60
2018-03-26T06:43:05.859Z,6.40
2018-03-26T06:45:33.303Z,6.40
2018-03-26T06:48:00.765Z,6.00
2018-03-26T06:50:28.252Z,6.10
2018-03-26T06:52:55.691Z,6.10
2018-03-26T06:55:23.144Z,5.60
2018-03-26T06:57:50.605Z,4.80
2018-03-26T07:00:18.053Z,5.00
2018-03-26T07:02:45.506Z,4.50
2018-03-26T07:05:12.956Z,4.30
2018-03-26T07:07:40.408Z,4.20
2018-03-26T07:10:07.857Z,4.60
2018-03-26T07:12:35.316Z,4.90
2018-03-26T07:15:02.830Z,5.10
2018-03-26T07:17:30.224Z,5.30
2018-03-26T07:19:57.694Z,5.40
2018-03-26T07:22:25.143Z,4.80
2018-03-26T07:24:52.600Z,4.60
2018-03-26T07:27:20.060Z,4.50
2018-03-26T07:29:47.516Z,4.50
2018-03-26T07:32:14.967Z,4.70
2018-03-26T07:34:42.428Z,4.60
2018-03-26T07:37:09.868Z,4.60
2018-03-26T07:39:37.337Z,5.10
2018-03-26T07:42:04.775Z,5.30
2018-03-26T07:44:33.009Z,5.20
2018-03-26T07:47:00.464Z,5.20
2018-03-26T07:49:27.944Z,5.70
2018-03-26T07:51:55.399Z,5.70
2018-03-26T07:54:22.827Z,5.60
2018-03-26T07:56:50.281Z,6.00
2018-03-26T07:59:17.729Z,6.20
2018-03-26T08:01:45.183Z,6.40
2018-03-26T08:04:12.656Z,6.40
2018-03-26T08:06:40.118Z,6.40
2018-03-26T08:09:07.572Z,6.40
2018-03-26T08:11:35.021Z,6.50
2018-03-26T08:14:02.472Z,6.50
2018-03-26T08:16:29.920Z,6.50
2018-03-26T08:18:57.397Z,6.20
2018-03-26T08:21:24.852Z,6.00
2018-03-26T08:23:52.299Z,6.20
2018-03-26T08:26:19.748Z,6.50
2018-03-26T08:28:47.208Z,6.60
2018-03-26T08:31:15.419Z,7.10
2018-03-26T08:33:42.886Z,7.10
2018-03-26T08:36:10.332Z,7.10
2018-03-26T08:38:37.788Z,7.10
2018-03-26T08:41:05.259Z,7.10
2018-03-26T08:43:32.700Z,6.80
2018-03-26T08:46:00.144Z,6.80
2018-03-26T08:48:27.636Z,7.20
2018-03-26T08:50:55.080Z,6.90
2018-03-26T08:53:23.096Z,6.90
2018-03-26T08:55:49.972Z,7.00
2018-03-26T08:58:17.427Z,7.40
2018-03-26T09:00:44.888Z,7.60
2018-03-26T09:03:12.348Z,7.60
2018-03-26T09:05:39.796Z,7.60
2018-03-26T09:08:07.256Z,7.90
2018-03-26T09:10:34.712Z,7.80
2018-03-26T09:13:02.196Z,8.00
2018-03-26T09:15:29.652Z,7.60
2018-03-26T09:17:57.137Z,7.90
2018-03-26T09:20:25.380Z,8.10
2018-03-26T09:22:52.837Z,8.00
2018-03-26T09:25:20.300Z,7.90
2018-03-26T09:27:47.751Z,8.10
2018-03-26T09:30:15.213Z,8.30
2018-03-26T09:32:42.668Z,8.50
2018-03-26T09:35:10.128Z,8.60
2018-03-26T09:37:37.564Z,9.00
2018-03-26T09:40:05.040Z,9.10
2018-03-26T09:42:32.500Z,9.30
2018-03-26T09:44:59.956Z,9.40
2018-03-26T09:47:27.431Z,9.00
2018-03-26T09:49:54.896Z,9.10
2018-03-26T09:52:23.128Z,8.90
2018-03-26T09:54:50.615Z,8.90
2018-03-26T09:57:18.076Z,9.90
2018-03-26T09:59:45.532Z,9.90
2018-03-26T10:02:12.991Z,9.70
2018-03-26T10:04:40.452Z,10.10
2018-03-26T10:07:08.672Z,9.90
2018-03-26T10:09:36.130Z,9.90
2018-03-26T10:12:03.585Z,9.60
2018-03-26T10:14:31.042Z,9.80
2018-03-26T10:16:58.505Z,9.70
2018-03-26T10:19:25.979Z,9.80
2018-03-26T10:21:53.428Z,9.80
2018-03-26T10:24:21.712Z,10.00
2018-03-26T10:26:49.160Z,9.80
2018-03-26T10:29:16.616Z,9.50
2018-03-26T10:31:44.061Z,9.80
2018-03-26T10:34:11.521Z,9.90
2018-03-26T10:36:39.032Z,10.40
2018-03-26T10:39:07.264Z,10.10
2018-03-26T10:41:34.752Z,10.10
2018-03-26T10:44:02.219Z,10.20
2018-03-26T10:46:29.680Z,10.10
2018-03-26T10:48:57.118Z,10.30
2018-03-26T10:51:24.571Z,10.00
2018-03-26T10:53:52.048Z,10.40
2018-03-26T10:56:19.491Z,10.70
2018-03-26T10:58:46.943Z,10.90
2018-03-26T11:01:14.403Z,10.90
2018-03-26T11:03:41.884Z,10.70
2018-03-26T11:06:09.332Z,10.40
2018-03-26T11:08:36.776Z,10.20
2018-03-26T11:11:04.248Z,9.60
2018-03-26T11:13:31.692Z,9.90
2018-03-26T11:15:59.144Z,9.70
2018-03-26T11:18:26.604Z,10.00
2018-03-26T11:20:54.084Z,10.10
2018-03-26T11:23:21.520Z,10.20
2018-03-26T11:25:48.983Z,10.90
2018-03-26T11:28:16.459Z,10.50
2018-03-26T11:30:44.700Z,12.80
2018-03-26T11:33:12.148Z,12.80
2018-03-26T11:35:39.611Z,12.70
2018-03-26T11:38:07.067Z,12.90
2018-03-26T11:40:34.528Z,12.00
2018-03-26T11:43:01.988Z,12.60
2018-03-26T11:45:29.467Z,12.00
2018-03-26T11:47:56.926Z,11.50
2018-03-26T11:50:24.392Z,11.30
2018-03-26T11:52:51.823Z,11.10
2018-03-26T11:55:19.304Z,11.60
2018-03-26T11:57:46.739Z,11.00
2018-03-26T12:00:14.215Z,10.80
2018-03-26T12:02:41.655Z,12.30
2018-03-26T12:05:09.130Z,13.70
2018-03-26T12:07:36.580Z,13.90
2018-03-26T12:10:04.039Z,14.10
2018-03-26T12:12:31.482Z,13.70
2018-03-26T12:14:58.943Z,13.10
2018-03-26T12:17:26.440Z,13.30
2018-03-26T12:20:05.816Z,14.50
2018-03-26T12:22:33.277Z,15.20
2018-03-26T12:25:15.616Z,14.90
2018-03-26T12:27:55.632Z,15.60
2018-03-26T12:30:26.922Z,15.60
2018-03-26T12:32:54.374Z,14.00
2018-03-26T12:35:34.582Z,13.10
2018-03-26T12:38:02.034Z,13.00
2018-03-26T12:40:41.443Z,12.80
2018-03-26T12:43:08.888Z,11.70
2018-03-26T12:45:49.099Z,11.80
2018-03-26T12:48:16.559Z,11.80
2018-03-26T12:50:55.912Z,12.20
2018-03-26T12:53:23.359Z,13.50
2018-03-26T12:55:50.816Z,15.70
2018-03-26T12:58:30.084Z,15.40
2018-03-26T13:01:10.172Z,12.70
2018-03-26T13:03:37.606Z,12.70
2018-03-26T13:06:05.056Z,12.90
2018-03-26T13:08:33.266Z,12.40
2018-03-26T13:11:00.723Z,12.40
2018-03-26T13:13:28.207Z,11.80
2018-03-26T13:15:55.660Z,11.50
2018-03-26T13:18:23.112Z,11.30
2018-03-26T13:20:50.573Z,11.20
2018-03-26T13:23:18.040Z,11.90
2018-03-26T13:25:45.503Z,12.20
2018-03-26T13:28:12.951Z,12.90
2018-03-26T13:30:40.405Z,12.80
2018-03-26T13:33:07.851Z,12.30
2018-03-26T13:35:35.337Z,12.70
2018-03-26T13:38:02.791Z,12.90
2018-03-26T13:40:30.261Z,13.10
2018-03-26T13:42:58.502Z,12.60
2018-03-26T13:45:25.983Z,12.60
2018-03-26T13:47:54.217Z,11.40
2018-03-26T13:50:21.680Z,11.40
2018-03-26T13:52:49.163Z,11.00
2018-03-26T13:55:16.647Z,11.60
2018-03-26T13:57:44.099Z,11.60
2018-03-26T14:00:12.340Z,11.30
2018-03-26T14:02:39.796Z,11.30
2018-03-26T14:05:07.302Z,11.20
2018-03-26T14:07:35.521Z,11.70
2018-03-26T14:10:14.932Z,11.60
2018-03-26T14:12:54.269Z,11.80
2018-03-26T14:15:33.638Z,12.10
2018-03-26T14:18:01.097Z,12.00
2018-03-26T14:20:28.571Z,12.50
2018-03-26T14:22:56.055Z,12.30
2018-03-26T14:25:24.276Z,11.80
2018-03-26T14:27:51.733Z,11.80
2018-03-26T14:30:19.187Z,12.00
2018-03-26T14:32:46.648Z,11.00
2018-03-26T14:38:23.040Z,8.90
2018-03-26T14:40:50.502Z,8.80
2018-03-26T14:43:17.950Z,8.80
2018-03-26T14:45:45.383Z,8.70
2018-03-26T14:48:12.833Z,9.10
2018-03-26T14:50:40.273Z,9.30
2018-03-26T14:53:08.512Z,9.10
2018-03-26T14:55:35.956Z,9.10
2018-03-26T14:58:03.412Z,9.10
2018-03-26T15:00:30.869Z,8.90
2018-03-26T15:02:58.345Z,8.80
2018-03-26T15:05:25.856Z,8.80
2018-03-26T15:07:53.304Z,8.80
2018-03-26T15:10:20.819Z,9.30
2018-03-26T15:12:48.308Z,9.30
2018-03-26T15:15:15.764Z,9.70
2018-03-26T15:17:43.988Z,9.50
2018-03-26T15:20:11.445Z,9.50
2018-03-26T15:22:38.908Z,9.50
2018-03-26T15:25:06.364Z,9.50
2018-03-26T15:27:33.857Z,9.50
2018-03-26T15:30:01.313Z,9.00
2018-03-26T15:32:28.767Z,9.10
2018-03-26T15:34:56.224Z,8.90
2018-03-26T15:37:23.680Z,8.90
2018-03-26T15:39:51.156Z,8.70
2018-03-26T15:42:18.599Z,8.80
2018-03-26T15:44:46.074Z,8.90
2018-03-26T15:47:13.536Z,9.20
2018-03-26T15:49:41.776Z,8.80
2018-03-26T15:52:09.259Z,8.80
2018-03-26T15:54:36.691Z,8.80
2018-03-26T15:57:04.143Z,8.60
2018-03-26T15:59:31.621Z,8.60
2018-03-26T16:01:58.577Z,8.60
2018-03-26T16:04:26.822Z,8.60
2018-03-26T16:06:54.294Z,8.50
2018-03-26T16:09:21.748Z,8.40
2018-03-26T16:11:49.204Z,8.60
2018-03-26T16:14:16.683Z,9.10
2018-03-26T16:16:44.905Z,8.90
2018-03-26T16:19:12.366Z,8.90
2018-03-26T16:21:39.845Z,8.80
2018-03-26T16:24:07.303Z,9.30
2018-03-26T16:26:34.772Z,9.50
2018-03-26T16:29:02.235Z,9.70
2018-03-26T16:31:29.704Z,9.60
2018-03-26T16:33:57.941Z,9.70
2018-03-26T16:36:25.396Z,9.70
2018-03-26T16:38:52.840Z,9.70
2018-03-26T16:41:32.177Z,9.50
2018-03-26T16:43:59.634Z,9.20
2018-03-26T16:46:27.100Z,8.60
2018-03-26T16:48:54.545Z,8.50
2018-03-26T16:51:22.102Z,8.60
2018-03-26T16:53:49.617Z,8.30
2018-03-26T16:56:17.840Z,8.10
2018-03-26T16:58:45.308Z,8.10
2018-03-26T17:01:12.756Z,8.10
2018-03-26T17:03:40.246Z,8.10
2018-03-26T17:06:07.668Z,8.10
2018-03-26T17:08:35.141Z,8.20
2018-03-26T17:11:02.664Z,8.40
2018-03-26T17:13:30.078Z,8.10
2018-03-26T17:15:57.519Z,8.20
2018-03-26T17:18:25.003Z,8.20
2018-03-26T17:20:53.232Z,8.20
2018-03-26T17:23:20.689Z,8.20
2018-03-26T17:25:48.148Z,8.50
2018-03-26T17:28:15.640Z,8.30
2018-03-26T17:30:43.083Z,8.10
2018-03-26T17:33:10.543Z,8.00
2018-03-26T17:35:37.984Z,8.30
2018-03-26T17:38:05.447Z,8.50
2018-03-26T17:40:32.896Z,8.40
2018-03-26T17:43:00.359Z,8.50
2018-03-26T17:45:27.856Z,8.70
2018-03-26T17:47:56.079Z,8.80
2018-03-26T17:50:23.536Z,8.80
2018-03-26T17:52:51.024Z,8.40
2018-03-26T17:55:18.465Z,8.40
2018-03-26T17:57:45.975Z,8.50
2018-03-26T18:00:13.364Z,8.00
2018-03-26T18:02:40.836Z,7.90
2018-03-26T18:05:08.304Z,7.90
2018-03-26T18:07:35.755Z,7.80
2018-03-26T18:10:03.249Z,7.80
2018-03-26T18:12:30.690Z,7.70
2018-03-26T18:14:58.148Z,7.70
2018-03-26T18:17:25.608Z,7.60
2018-03-26T18:19:53.813Z,7.60
2018-03-26T18:22:21.266Z,7.50
2018-03-26T18:24:48.712Z,7.90
2018-03-26T18:27:16.943Z,8.20
2018-03-26T18:29:44.416Z,8.20
2018-03-26T18:32:11.844Z,7.90
2018-03-26T18:34:39.312Z,8.00
2018-03-26T18:37:06.760Z,7.70
2018-03-26T18:39:34.228Z,7.60
2018-03-26T18:42:01.677Z,7.70
2018-03-26T18:44:29.186Z,8.00
2018-03-26T18:46:56.588Z,7.80
2018-03-26T18:49:24.061Z,7.70
2018-03-26T18:51:51.503Z,8.00
2018-03-26T18:54:18.960Z,8.00
2018-03-26T18:56:46.423Z,8.10
2018-03-26T18:59:13.896Z,8.50
2018-03-26T19:01:41.344Z,8.30
2018-03-26T19:04:08.812Z,8.40
2018-03-26T19:06:36.260Z,8.30
2018-03-26T19:09:03.728Z,8.00
2018-03-26T19:11:31.184Z,8.00
2018-03-26T19:13:58.640Z,8.60
2018-03-26T19:16:26.096Z,9.10
2018-03-26T19:18:53.565Z,9.00
2018-03-26T19:21:21.012Z,9.00
2018-03-26T19:23:48.475Z,9.00
2018-03-26T19:26:15.920Z,9.10
2018-03-26T19:28:43.418Z,8.80
2018-03-26T19:31:10.844Z,8.80
2018-03-26T19:33:38.316Z,8.80
2018-03-26T19:36:06.564Z,8.80
2018-03-26T19:38:34.020Z,8.80
2018-03-26T19:41:01.471Z,8.80
2018-03-26T19:43:28.928Z,8.30
2018-03-26T19:45:56.382Z,8.10
2018-03-26T19:48:23.840Z,8.40
2018-03-26T19:50:51.303Z,8.40
2018-03-26T19:53:18.775Z,8.20
2018-03-26T19:55:46.227Z,8.10
2018-03-26T19:58:13.743Z,8.40
2018-03-26T20:00:41.136Z,8.10
2018-03-26T20:03:08.592Z,7.50
2018-03-26T20:05:36.035Z,7.30
2018-03-26T20:08:03.496Z,7.40
2018-03-26T20:10:30.957Z,8.10
2018-03-26T20:12:58.410Z,8.40
2018-03-26T20:15:25.869Z,8.40
2018-03-26T20:17:53.401Z,8.30
2018-03-26T20:20:20.791Z,8.50
2018-03-26T20:22:48.282Z,7.90
2018-03-26T20:25:15.728Z,7.60
2018-03-26T20:27:43.175Z,7.60
2018-03-26T20:30:10.643Z,7.80
2018-03-26T20:32:38.100Z,7.30
2018-03-26T20:35:05.569Z,6.60
2018-03-26T20:37:33.021Z,6.30
2018-03-26T20:40:00.488Z,6.20
2018-03-26T20:42:28.732Z,6.40
2018-03-26T20:44:56.171Z,6.40
2018-03-26T20:47:23.627Z,6.80
2018-03-26T20:49:51.084Z,7.20
2018-03-26T20:52:18.539Z,7.70
2018-03-26T20:54:46.000Z,8.20
2018-03-26T20:57:13.459Z,7.60
2018-03-26T20:59:40.915Z,6.90
2018-03-26T21:02:08.370Z,6.90
2018-03-26T21:04:35.833Z,6.40
2018-03-26T21:07:03.290Z,6.40
2018-03-26T21:09:30.757Z,6.00
2018-03-26T21:11:58.200Z,6.90
2018-03-26T21:14:25.657Z,7.50
2018-03-26T21:16:53.115Z,6.90
2018-03-26T21:19:20.571Z,7.00
2018-03-26T21:21:48.028Z,7.20
2018-03-26T21:24:15.488Z,7.20
2018-03-26T21:26:42.949Z,6.60
2018-03-26T21:29:10.404Z,5.80
2018-03-26T21:31:37.862Z,5.30
2018-03-26T21:34:05.316Z,5.10
2018-03-26T21:36:32.783Z,5.30
2018-03-26T21:41:34.269Z,6.70
2018-03-26T21:44:01.717Z,6.80
2018-03-26T21:46:29.167Z,7.00
2018-03-26T21:48:56.620Z,6.80
2018-03-26T21:51:24.104Z,6.60
2018-03-26T21:53:51.563Z,6.90
2018-03-26T21:56:19.040Z,6.90
2018-03-26T21:58:46.492Z,7.10
2018-03-26T22:01:14.736Z,7.00
2018-03-26T22:03:42.179Z,6.90
2018-03-26T22:06:09.632Z,6.90
2018-03-26T22:08:37.087Z,7.00
2018-03-26T22:11:04.516Z,5.60
2018-03-26T22:13:31.967Z,5.00
2018-03-26T22:15:59.413Z,4.50
2018-03-26T22:18:27.643Z,3.80
2018-03-26T22:20:55.099Z,3.70
2018-03-26T22:23:22.552Z,4.00
2018-03-26T22:25:50.008Z,5.60
2018-03-26T22:28:17.473Z,5.90
2018-03-26T22:30:44.921Z,6.30
2018-03-26T22:33:12.380Z,5.90
2018-03-26T22:35:39.835Z,6.50
2018-03-26T22:38:07.295Z,6.30
2018-03-26T22:40:34.750Z,6.20
2018-03-26T22:43:02.222Z,5.50
2018-03-26T22:45:29.664Z,4.30
2018-03-26T22:47:57.108Z,3.80
2018-03-26T22:50:24.573Z,4.40
2018-03-26T22:52:52.007Z,4.80
2018-03-26T22:55:19.459Z,4.00
2018-03-26T22:57:46.916Z,4.20
2018-03-26T23:00:14.409Z,4.80
2018-03-26T23:02:41.864Z,5.40
2018-03-26T23:05:09.320Z,5.90
2018-03-26T23:07:36.777Z,5.60
2018-03-26T23:10:04.235Z,4.10
2018-03-26T23:12:31.672Z,4.00
2018-03-26T23:14:59.147Z,3.30
2018-03-26T23:17:26.584Z,2.90
2018-03-26T23:19:54.065Z,2.80
2018-03-26T23:22:33.458Z,2.80
2018-03-26T23:25:00.912Z,2.70
2018-03-26T23:27:29.136Z,2.60
2018-03-26T23:29:56.595Z,2.60
2018-03-26T23:32:24.049Z,2.70
2018-03-26T23:34:51.504Z,2.70
2018-03-26T23:37:18.947Z,2.80
2018-03-26T23:39:46.420Z,3.20
2018-03-26T23:42:13.883Z,3.90
2018-03-26T23:44:41.335Z,3.50
2018-03-26T23:47:08.792Z,4.20
2018-03-26T23:49:36.309Z,4.30
2018-03-26T23:52:03.706Z,3.60
2018-03-26T23:54:31.214Z,3.10
2018-03-26T23:56:58.617Z,3.50
2018-03-26T23:59:26.079Z,4.70
